Time;durP1;ratioP1;P1;durP2;ratioP2;P2;SDS_P1;SDS_P2;PMS_P1;PMS_P2;Temp;Humidity;BMP_temperature;BMP_pressure;BME280_temperature;BME280_humidity;BME280_pressure;Samples;Min_cycle;Max_cycle;Signal;HPM_P1;HPM_P2
2022/03/20 00:01:04;;;;;;;29.25;17.83;;;4.10;99.90;;;;;;5005126;28;20070;-66
2022/03/20 00:03:31;;;;;;;35.70;18.40;;;4.10;99.90;;;;;;5012287;28;20468;-66
2022/03/20 00:05:58;;;;;;;33.47;18.02;;;4.00;99.90;;;;;;5019000;28;20085;-67
2022/03/20 00:08:24;;;;;;;34.83;18.50;;;4.00;99.90;;;;;;5013156;28;20132;-67
2022/03/20 00:10:54;;;;;;;32.03;17.88;;;4.00;99.90;;;;;;5007616;28;20042;-67
2022/03/20 00:13:22;;;;;;;28.77;17.30;;;4.00;99.90;;;;;;5012278;28;20046;-66
2022/03/20 00:15:50;;;;;;;28.48;17.48;;;4.00;99.90;;;;;;5010376;28;20096;-66
2022/03/20 00:18:17;;;;;;;;;;;3.90;99.90;;;;;;5015191;28;20080;-66
2022/03/20 00:20:50;;;;;;;31.10;17.73;;;3.90;99.90;;;;;;5007341;28;19997;-66
2022/03/20 00:23:17;;;;;;;41.97;18.50;;;3.90;99.90;;;;;;5014590;28;20508;-67
2022/03/20 00:25:44;;;;;;;25.90;17.15;;;3.90;99.90;;;;;;5008542;28;20045;-67
2022/03/20 00:28:11;;;;;;;32.22;17.67;;;3.90;99.90;;;;;;5015974;28;20042;-67
2022/03/20 00:30:37;;;;;;;25.75;17.42;;;3.90;99.90;;;;;;5012225;28;20042;-66
2022/03/20 00:33:03;;;;;;;31.88;17.23;;;3.80;99.90;;;;;;5020390;28;20038;-66
2022/03/20 00:35:30;;;;;;;30.85;18.02;;;3.80;99.90;;;;;;5013916;28;20057;-67
2022/03/20 00:37:56;;;;;;;32.55;18.33;;;3.70;99.90;;;;;;5010861;28;20042;-66
2022/03/20 00:40:22;;;;;;;29.38;17.98;;;3.70;99.90;;;;;;5015054;28;20396;-66
2022/03/20 00:42:47;;;;;;;32.83;18.17;;;3.60;99.90;;;;;;5011197;28;20076;-67
2022/03/20 00:45:13;;;;;;;29.60;17.30;;;3.60;99.90;;;;;;5016866;28;20129;-67
2022/03/20 00:47:39;;;;;;;29.02;18.27;;;3.70;99.90;;;;;;5008673;28;20152;-66
2022/03/20 00:50:07;;;;;;;32.13;16.77;;;3.60;99.90;;;;;;5019086;28;20483;-67
2022/03/20 00:52:32;;;;;;;26.65;16.35;;;3.60;99.90;;;;;;5013970;28;20057;-67
2022/03/20 00:54:59;;;;;;;32.50;17.70;;;3.60;99.90;;;;;;5010732;28;20042;-67
2022/03/20 00:57:25;;;;;;;34.08;18.17;;;3.50;99.90;;;;;;5007870;28;20096;-67
2022/03/20 00:59:50;;;;;;;38.17;18.00;;;3.50;99.90;;;;;;5002933;28;20125;-66
2022/03/20 01:02:16;;;;;;;29.83;17.58;;;3.50;99.90;;;;;;5019664;28;20124;-67
2022/03/20 01:04:42;;;;;;;31.52;18.75;;;3.50;99.90;;;;;;5004484;28;20046;-67
2022/03/20 01:07:08;;;;;;;25.52;16.92;;;3.50;99.90;;;;;;5013507;28;20050;-67
2022/03/20 01:09:34;;;;;;;32.03;18.48;;;3.40;99.90;;;;;;5010279;28;20098;-67
2022/03/20 01:12:01;;;;;;;34.20;18.30;;;3.40;99.90;;;;;;5016134;28;20088;-67
2022/03/20 01:14:27;;;;;;;44.75;19.95;;;3.40;99.90;;;;;;5009698;28;20042;-67
2022/03/20 01:16:54;;;;;;;36.35;20.60;;;3.40;99.90;;;;;;5013555;28;20410;-67
2022/03/20 01:19:21;;;;;;;31.35;18.77;;;3.30;99.90;;;;;;5015906;28;20038;-67
2022/03/20 01:21:47;;;;;;;38.75;19.42;;;3.30;99.90;;;;;;5006160;28;20117;-67
2022/03/20 01:24:12;;;;;;;32.58;19.50;;;3.30;99.90;;;;;;5008863;28;20124;-67
2022/03/20 01:26:38;;;;;;;28.52;17.60;;;3.20;99.90;;;;;;5012202;28;20095;-66
2022/03/20 01:29:07;;;;;;;40.55;19.80;;;3.20;99.90;;;;;;5010521;28;20054;-66
2022/03/20 01:31:34;;;;;;;30.35;19.92;;;3.20;99.90;;;;;;5009733;28;20041;-66
2022/03/20 01:34:00;;;;;;;29.80;17.88;;;3.20;99.90;;;;;;5008351;28;20038;-66
2022/03/20 01:36:26;;;;;;;29.75;18.88;;;3.20;99.90;;;;;;5019686;28;20124;-66
2022/03/20 01:38:52;;;;;;;29.33;18.35;;;3.10;99.90;;;;;;5011865;28;20103;-66
2022/03/20 01:41:18;;;;;;;31.75;20.08;;;3.10;99.90;;;;;;5002706;28;20046;-66
2022/03/20 01:43:50;;;;;;;35.10;19.20;;;3.20;99.90;;;;;;5007723;28;20052;-66
2022/03/20 01:46:16;;;;;;;35.22;20.60;;;3.20;99.90;;;;;;5004424;28;20061;-67
2022/03/20 01:48:42;;;;;;;37.72;20.92;;;3.20;99.90;;;;;;5010376;28;20054;-67
2022/03/20 01:51:10;;;;;;;31.23;20.13;;;3.20;99.90;;;;;;5009140;28;20129;-66
2022/03/20 01:53:36;;;;;;;35.25;19.92;;;3.10;99.90;;;;;;5006241;28;20088;-66
2022/03/20 01:56:01;;;;;;;35.58;20.30;;;3.10;99.90;;;;;;5009990;28;20045;-67
2022/03/20 01:58:27;;;;;;;31.90;19.48;;;3.10;99.90;;;;;;5015333;28;20045;-67
2022/03/20 02:00:53;;;;;;;33.60;20.63;;;3.20;99.90;;;;;;5001641;28;20152;-66
2022/03/20 02:03:19;;;;;;;32.45;19.30;;;3.20;99.90;;;;;;5004436;28;20133;-67
2022/03/20 02:05:44;;;;;;;28.13;19.73;;;3.20;99.90;;;;;;5006881;28;20574;-66
2022/03/20 02:08:11;;;;;;;37.03;20.00;;;3.10;99.90;;;;;;5007817;28;20053;-66
2022/03/20 02:10:37;;;;;;;33.55;20.38;;;3.10;99.90;;;;;;5009138;28;20488;-67
2022/03/20 02:13:05;;;;;;;40.83;21.33;;;3.00;99.90;;;;;;5005083;28;20523;-66
2022/03/20 02:15:31;;;;;;;46.85;20.38;;;3.10;99.90;;;;;;5001566;28;20045;-66
2022/03/20 02:17:57;;;;;;;43.92;21.63;;;3.00;99.90;;;;;;5010059;28;20049;-66
2022/03/20 02:20:22;;;;;;;37.47;20.25;;;3.00;99.90;;;;;;5003695;28;20602;-67
2022/03/20 02:22:49;;;;;;;35.50;20.50;;;3.10;99.90;;;;;;5008467;28;20114;-66
2022/03/20 02:25:17;;;;;;;37.50;23.55;;;3.10;99.90;;;;;;5003190;28;20034;-66
2022/03/20 02:27:44;;;;;;;35.58;21.95;;;3.10;99.90;;;;;;5006168;28;20088;-67
2022/03/20 02:30:13;;;;;;;40.75;21.48;;;3.10;99.90;;;;;;5007833;28;20064;-67
2022/03/20 02:32:47;;;;;;;36.00;21.25;;;3.10;99.90;;;;;;5006066;28;20046;-67
2022/03/20 02:35:15;;;;;;;44.90;24.02;;;3.10;99.90;;;;;;5017245;28;20049;-65
2022/03/20 02:37:51;;;;;;;34.80;21.90;;;3.10;99.90;;;;;;5015660;28;20042;-67
2022/03/20 02:40:19;;;;;;;52.30;24.42;;;3.10;99.90;;;;;;5006884;28;20046;-66
2022/03/20 02:42:48;;;;;;;38.03;24.40;;;3.00;99.90;;;;;;4991381;28;20081;-67
2022/03/20 02:45:19;;;;;;;35.67;22.50;;;3.00;99.90;;;;;;5003010;28;20621;-66
2022/03/20 02:47:47;;;;;;;45.63;23.67;;;3.00;99.90;;;;;;5005988;28;20140;-67
2022/03/20 02:50:32;;;;;;;38.05;23.17;;;3.00;99.90;;;;;;5004504;28;20077;-67
2022/03/20 02:53:02;;;;;;;34.33;21.98;;;3.00;99.90;;;;;;5004333;28;20045;-66
2022/03/20 02:55:31;;;;;;;41.83;23.55;;;3.00;99.90;;;;;;5000731;28;20044;-66
2022/03/20 02:58:01;;;;;;;43.22;25.17;;;3.00;99.90;;;;;;5003986;28;20048;-67
2022/03/20 03:00:29;;;;;;;41.17;23.45;;;3.00;99.90;;;;;;5006313;28;20057;-66
2022/03/20 03:02:56;;;;;;;;;;;2.90;99.90;;;;;;4998317;28;20128;-66
2022/03/20 03:05:24;;;;;;;37.05;24.55;;;2.90;99.90;;;;;;5012983;28;19973;-66
2022/03/20 03:10:59;;;;;;;41.15;25.77;;;2.80;99.90;;;;;;5005571;28;20144;-66
2022/03/20 03:13:31;;;;;;;33.63;23.63;;;2.80;99.90;;;;;;5005690;28;20104;-66
2022/03/20 03:16:08;;;;;;;39.80;22.75;;;2.70;99.90;;;;;;5008317;28;20567;-66
2022/03/20 03:18:35;;;;;;;41.53;25.25;;;2.70;99.90;;;;;;5013543;28;20049;-67
2022/03/20 03:21:02;;;;;;;38.72;25.30;;;2.70;99.90;;;;;;5004203;28;20050;-67
2022/03/20 03:23:28;;;;;;;35.63;24.63;;;2.70;99.90;;;;;;5009091;28;20078;-66
2022/03/20 03:25:55;;;;;;;48.38;24.50;;;2.60;99.90;;;;;;5005148;28;20160;-67
2022/03/20 03:28:22;;;;;;;37.60;24.30;;;2.60;99.90;;;;;;5011456;28;20050;-66
2022/03/20 03:30:50;;;;;;;40.95;25.13;;;2.50;99.90;;;;;;5011127;28;20049;-67
2022/03/20 03:33:21;;;;;;;49.20;27.20;;;2.50;99.90;;;;;;5014299;28;20042;-66
2022/03/20 03:35:53;;;;;;;40.13;24.55;;;2.50;99.90;;;;;;5012554;28;20049;-66
2022/03/20 03:38:22;;;;;;;44.80;26.98;;;2.40;99.90;;;;;;5004947;28;20038;-66
2022/03/20 03:40:49;;;;;;;37.83;25.60;;;2.40;99.90;;;;;;5008122;28;20479;-66
2022/03/20 03:43:17;;;;;;;45.15;28.15;;;2.40;99.90;;;;;;5004316;28;20077;-66
2022/03/20 03:45:43;;;;;;;44.92;27.48;;;2.40;99.90;;;;;;5006988;28;20085;-66
2022/03/20 03:48:10;;;;;;;48.25;28.42;;;2.30;99.90;;;;;;5008080;28;20052;-66
2022/03/20 03:50:37;;;;;;;48.45;28.95;;;2.30;99.90;;;;;;5008031;28;20046;-66
2022/03/20 03:53:04;;;;;;;48.33;29.17;;;2.30;99.90;;;;;;5008716;28;20042;-66
2022/03/20 03:55:31;;;;;;;47.92;28.05;;;2.30;99.90;;;;;;5013292;28;20042;-66
2022/03/20 03:57:57;;;;;;;45.53;30.40;;;2.30;99.90;;;;;;5005046;28;20043;-67
2022/03/20 04:00:24;;;;;;;51.15;28.92;;;2.20;99.90;;;;;;5001835;28;20482;-67
2022/03/20 04:02:50;;;;;;;43.28;28.30;;;2.20;99.90;;;;;;5007612;28;20054;-66
2022/03/20 04:05:17;;;;;;;47.35;29.02;;;2.20;99.90;;;;;;5007161;28;20038;-66
2022/03/20 04:07:45;;;;;;;53.65;31.00;;;2.30;99.90;;;;;;5007709;28;20684;-66
2022/03/20 04:10:11;;;;;;;42.65;28.25;;;2.20;99.90;;;;;;5008257;28;20042;-66
2022/03/20 04:12:40;;;;;;;52.15;30.75;;;2.20;99.90;;;;;;5005099;28;20488;-66
2022/03/20 04:15:07;;;;;;;56.95;32.28;;;2.20;99.90;;;;;;5001459;28;20046;-66
2022/03/20 04:17:33;;;;;;;56.85;34.25;;;2.30;99.90;;;;;;5007058;28;20060;-66
2022/03/20 04:19:59;;;;;;;55.40;28.83;;;2.30;99.90;;;;;;5007118;28;20041;-66
2022/03/20 04:22:26;;;;;;;62.35;32.95;;;2.30;99.90;;;;;;5004599;28;20048;-67
2022/03/20 04:24:52;;;;;;;48.67;30.42;;;2.40;99.90;;;;;;5008400;28;20057;-66
2022/03/20 04:27:18;;;;;;;53.10;33.70;;;2.40;99.90;;;;;;4997453;28;20042;-66
2022/03/20 04:29:45;;;;;;;62.60;35.42;;;2.40;99.90;;;;;;5006067;28;20046;-65
2022/03/20 04:32:13;;;;;;;65.90;36.47;;;2.40;99.90;;;;;;5009827;28;20097;-65
2022/03/20 04:34:42;;;;;;;;;;;2.40;99.90;;;;;;5012097;28;20069;-66
2022/03/20 04:37:10;;;;;;;54.58;32.65;;;2.30;99.90;;;;;;5018130;28;20357;-66
2022/03/20 04:39:37;;;;;;;63.88;36.50;;;2.30;99.90;;;;;;5011850;28;20112;-66
2022/03/20 04:42:03;;;;;;;62.55;34.90;;;2.30;99.90;;;;;;5007837;28;20050;-66
2022/03/20 04:44:29;;;;;;;54.60;34.25;;;2.30;99.90;;;;;;5010511;28;20160;-66
2022/03/20 04:46:55;;;;;;;57.25;33.25;;;2.30;99.90;;;;;;5003905;28;20448;-66
2022/03/20 05:00:21;;;;;;;53.00;35.28;;;2.30;99.90;;;;;;5000003;28;20038;-66
2022/03/20 05:02:48;;;;;;;58.53;36.17;;;2.20;99.90;;;;;;5012716;28;20057;-67
2022/03/20 05:05:18;;;;;;;55.08;34.97;;;2.30;99.90;;;;;;5008495;28;20057;-67
2022/03/20 05:07:44;;;;;;;65.68;37.60;;;2.20;99.90;;;;;;5007564;28;20117;-67
2022/03/20 05:15:40;;;;;;;56.17;35.50;;;2.20;99.90;;;;;;5007159;28;20133;-68
2022/03/20 05:18:09;;;;;;;62.80;37.90;;;2.10;99.90;;;;;;5016689;28;20052;-67
2022/03/20 05:20:36;;;;;;;64.57;38.85;;;2.20;99.90;;;;;;5010709;28;20049;-67
2022/03/20 05:23:02;;;;;;;66.30;36.47;;;2.10;99.90;;;;;;5002262;28;20050;-67
2022/03/20 05:25:28;;;;;;;73.65;39.35;;;2.10;99.90;;;;;;5007309;28;20074;-67
2022/03/20 05:27:55;;;;;;;65.28;39.17;;;2.10;99.90;;;;;;5008794;28;20056;-69
2022/03/20 05:30:21;;;;;;;61.28;36.10;;;2.10;99.90;;;;;;5005444;28;20092;-69
2022/03/20 05:32:48;;;;;;;62.15;39.00;;;2.10;99.90;;;;;;5009449;28;20072;-69
2022/03/20 05:35:15;;;;;;;62.22;38.92;;;2.10;99.90;;;;;;5010375;28;20444;-68
2022/03/20 05:37:42;;;;;;;55.08;35.15;;;2.10;99.90;;;;;;5007553;28;20134;-68
2022/03/20 05:40:08;;;;;;;76.88;40.72;;;2.10;99.90;;;;;;5009370;28;20053;-68
2022/03/20 05:42:35;;;;;;;62.33;40.00;;;2.10;99.90;;;;;;5005952;28;20037;-68
2022/03/20 05:45:02;;;;;;;65.15;38.47;;;2.10;99.90;;;;;;5006934;28;20423;-68
2022/03/20 05:47:32;;;;;;;62.42;36.92;;;2.10;99.90;;;;;;5009956;28;20050;-68
2022/03/20 05:50:02;;;;;;;62.70;38.05;;;2.10;99.90;;;;;;5009853;28;20073;-67
2022/03/20 05:52:31;;;;;;;59.22;38.42;;;2.10;99.90;;;;;;5005498;28;20053;-68
2022/03/20 05:55:00;;;;;;;68.32;39.88;;;2.10;99.90;;;;;;5009682;28;20045;-67
2022/03/20 06:00:18;;;;;;;61.30;37.67;;;2.20;99.90;;;;;;5007957;28;20081;-68
2022/03/20 06:02:44;;;;;;;69.38;38.05;;;2.20;99.90;;;;;;5011711;28;20065;-68
2022/03/20 06:05:11;;;;;;;60.30;38.67;;;2.20;99.90;;;;;;5006959;28;20062;-67
2022/03/20 06:07:41;;;;;;;51.42;34.42;;;2.20;99.90;;;;;;5009213;28;20050;-68
2022/03/20 06:10:11;;;;;;;57.95;37.13;;;2.20;99.90;;;;;;5007076;28;20042;-68
2022/03/20 06:12:37;;;;;;;62.38;38.58;;;2.30;99.90;;;;;;5021087;28;20085;-67
2022/03/20 06:15:04;;;;;;;65.93;37.60;;;2.40;99.90;;;;;;5004661;28;20112;-68
2022/03/20 06:17:29;;;;;;;63.72;37.85;;;2.40;99.90;;;;;;5015658;28;20380;-68
2022/03/20 06:19:55;;;;;;;57.05;38.05;;;2.40;99.90;;;;;;5011420;28;20052;-67
2022/03/20 06:22:21;;;;;;;65.95;36.50;;;2.50;99.90;;;;;;5005786;28;20080;-67
2022/03/20 06:24:47;;;;;;;59.80;40.55;;;2.50;99.90;;;;;;5003128;28;20047;-67
2022/03/20 06:27:12;;;;;;;67.80;38.30;;;2.50;99.90;;;;;;5016725;28;20051;-67
2022/03/20 06:29:38;;;;;;;63.63;37.78;;;2.50;99.90;;;;;;5003565;28;20416;-68
2022/03/20 06:32:04;;;;;;;62.95;39.63;;;2.50;99.90;;;;;;5007045;28;20394;-68
2022/03/20 06:34:30;;;;;;;62.05;39.42;;;2.60;99.90;;;;;;5008487;28;20042;-67
2022/03/20 06:36:57;;;;;;;67.43;40.70;;;2.60;99.90;;;;;;5001781;28;20100;-67
2022/03/20 06:39:24;;;;;;;61.75;38.25;;;2.60;99.90;;;;;;5009389;28;20062;-67
2022/03/20 06:41:50;;;;;;;65.00;38.20;;;2.70;99.90;;;;;;5009186;28;20096;-67
2022/03/20 06:44:15;;;;;;;56.33;37.60;;;2.70;99.90;;;;;;5002899;28;20504;-68
2022/03/20 06:46:42;;;;;;;63.05;38.28;;;2.70;99.90;;;;;;5006624;28;20060;-67
2022/03/20 06:49:09;;;;;;;66.00;37.72;;;2.70;99.90;;;;;;5007251;28;20054;-67
2022/03/20 06:51:35;;;;;;;60.17;36.67;;;2.80;99.90;;;;;;5002941;28;20056;-67
2022/03/20 06:54:01;;;;;;;67.75;38.63;;;2.80;99.90;;;;;;4998109;28;20043;-67
2022/03/20 06:56:28;;;;;;;66.18;39.85;;;2.90;99.90;;;;;;5006930;28;20042;-67
2022/03/20 06:58:55;;;;;;;59.83;39.13;;;2.90;99.90;;;;;;5009236;28;20057;-67
2022/03/20 07:01:21;;;;;;;57.30;35.22;;;3.00;99.90;;;;;;5006001;28;20104;-67
2022/03/20 07:03:47;;;;;;;66.57;40.55;;;3.00;99.90;;;;;;5003099;28;20037;-67
2022/03/20 07:06:12;;;;;;;62.78;40.35;;;3.10;99.90;;;;;;5008057;28;20050;-67
2022/03/20 07:08:38;;;;;;;65.95;38.95;;;3.20;99.90;;;;;;5005306;28;20400;-67
2022/03/20 07:11:04;;;;;;;61.22;39.20;;;3.30;99.90;;;;;;5009612;28;20507;-67
2022/03/20 07:16:15;;;;;;;67.45;37.20;;;3.50;99.90;;;;;;5000541;28;20513;-67
2022/03/20 07:18:42;;;;;;;64.43;39.95;;;3.50;99.90;;;;;;5011473;28;20049;-67
2022/03/20 07:21:08;;;;;;;65.63;39.63;;;3.60;99.90;;;;;;5008195;28;20037;-67
2022/03/20 07:23:36;;;;;;;58.35;38.70;;;3.70;99.90;;;;;;5012181;28;20030;-67
2022/03/20 07:31:31;;;;;;;63.00;40.95;;;3.80;99.90;;;;;;5005549;28;20415;-67
2022/03/20 07:33:57;;;;;;;58.75;35.53;;;3.90;99.90;;;;;;5005417;28;20042;-67
2022/03/20 07:36:22;;;;;;;54.03;36.42;;;3.90;99.90;;;;;;5004329;28;20144;-67
2022/03/20 07:38:50;;;;;;;61.30;35.92;;;4.00;99.90;;;;;;5006815;28;20049;-67
2022/03/20 07:41:16;;;;;;;59.20;38.75;;;4.10;99.90;;;;;;5005016;28;20406;-67
2022/03/20 07:43:42;;;;;;;51.40;35.88;;;4.20;99.90;;;;;;5008756;28;20048;-67
2022/03/20 07:46:08;;;;;;;59.97;39.13;;;4.20;99.90;;;;;;5006326;28;20062;-67
2022/03/20 07:48:35;;;;;;;68.10;40.80;;;4.40;99.90;;;;;;4999843;28;20054;-67
2022/03/20 07:51:00;;;;;;;60.05;38.63;;;4.50;99.90;;;;;;5010135;28;20083;-67
2022/03/20 07:53:26;;;;;;;68.97;42.03;;;4.50;99.90;;;;;;5006491;28;20466;-67
2022/03/20 07:55:52;;;;;;;57.38;38.80;;;4.60;99.90;;;;;;5008183;28;20068;-67
2022/03/20 07:58:19;;;;;;;62.53;38.20;;;4.70;99.90;;;;;;5010156;28;20141;-67
2022/03/20 08:00:46;;;;;;;59.10;38.42;;;4.80;99.90;;;;;;5007445;28;20133;-67
2022/03/20 08:03:12;;;;;;;60.08;39.45;;;4.80;99.90;;;;;;5010583;28;20077;-67
2022/03/20 08:05:38;;;;;;;57.10;36.47;;;4.80;99.90;;;;;;5009607;28;20076;-67
2022/03/20 08:08:04;;;;;;;60.38;39.22;;;5.00;99.90;;;;;;4990834;28;20050;-67
2022/03/20 08:10:30;;;;;;;57.47;38.00;;;5.10;99.90;;;;;;5010039;28;20052;-67
2022/03/20 08:12:56;;;;;;;55.15;37.33;;;5.10;99.90;;;;;;5008467;28;20042;-67
2022/03/20 08:15:24;;;;;;;55.88;38.67;;;5.10;99.90;;;;;;5011448;28;20046;-67
2022/03/20 08:17:51;;;;;;;64.80;40.53;;;5.30;99.90;;;;;;5010171;28;20044;-67
2022/03/20 08:20:17;;;;;;;67.95;39.67;;;5.30;99.90;;;;;;5011164;28;20173;-67
2022/03/20 08:22:43;;;;;;;59.28;36.88;;;5.30;99.90;;;;;;5003437;28;20069;-67
2022/03/20 08:25:12;;;;;;;75.75;42.80;;;5.50;99.90;;;;;;5010306;28;20483;-67
2022/03/20 08:27:46;;;;;;;69.65;40.83;;;5.60;99.90;;;;;;5010236;28;20053;-67
2022/03/20 08:30:15;;;;;;;65.25;39.35;;;5.50;99.90;;;;;;5009464;28;20060;-67
2022/03/20 08:32:42;;;;;;;67.75;42.67;;;5.60;99.90;;;;;;5007798;28;20053;-67
2022/03/20 08:35:08;;;;;;;64.28;39.13;;;5.70;99.90;;;;;;4989935;28;20129;-66
2022/03/20 08:37:35;;;;;;;66.03;37.13;;;5.90;99.90;;;;;;4998684;28;20145;-66
2022/03/20 08:40:03;;;;;;;67.18;42.33;;;5.90;99.90;;;;;;5006906;28;20046;-66
2022/03/20 08:42:29;;;;;;;64.47;39.23;;;6.10;98.30;;;;;;4991737;28;20100;-66
2022/03/20 08:44:55;;;;;;;66.82;40.42;;;6.10;97.40;;;;;;4990811;28;20691;-66
2022/03/20 08:47:21;;;;;;;67.07;41.33;;;6.20;98.30;;;;;;5010355;28;20062;-66
2022/03/20 08:49:48;;;;;;;72.55;41.97;;;6.20;97.00;;;;;;5020117;28;20620;-66
2022/03/20 08:52:14;;;;;;;59.63;39.53;;;6.20;93.20;;;;;;5005350;28;20046;-66
2022/03/20 08:54:39;;;;;;;76.63;45.35;;;6.30;95.90;;;;;;5003282;28;20038;-66
2022/03/20 08:57:07;;;;;;;68.38;41.40;;;6.50;94.30;;;;;;5010616;28;20042;-66
2022/03/20 08:59:32;;;;;;;73.88;40.65;;;6.60;94.30;;;;;;5004144;28;20577;-66
2022/03/20 09:01:58;;;;;;;66.82;45.05;;;6.70;94.40;;;;;;5009151;28;20038;-66
2022/03/20 09:04:24;;;;;;;66.82;41.80;;;6.70;92.50;;;;;;5010259;28;20041;-66
2022/03/20 09:06:50;;;;;;;65.65;43.00;;;6.80;89.30;;;;;;4998055;28;20081;-66
2022/03/20 09:09:16;;;;;;;69.82;40.05;;;6.80;90.10;;;;;;5006298;28;20041;-66
2022/03/20 09:11:44;;;;;;;69.97;41.70;;;6.90;89.00;;;;;;5003006;28;20045;-66
2022/03/20 09:14:10;;;;;;;73.55;46.90;;;7.10;90.40;;;;;;5008982;28;20136;-66
2022/03/20 09:19:20;;;;;;;76.88;46.78;;;7.20;85.70;;;;;;5009885;28;20084;-66
2022/03/20 09:21:45;;;;;;;71.57;43.80;;;7.40;85.80;;;;;;5009684;28;20081;-67
2022/03/20 09:24:12;;;;;;;65.85;42.90;;;7.40;81.70;;;;;;5024392;28;20041;-67
2022/03/20 09:26:37;;;;;;;76.43;41.45;;;7.60;85.10;;;;;;5011605;28;20435;-66
2022/03/20 09:29:06;;;;;;;60.85;39.97;;;7.60;84.70;;;;;;5010978;28;20037;-66
2022/03/20 09:31:33;;;;;;;80.25;46.72;;;7.60;79.80;;;;;;5008132;28;20120;-66
2022/03/20 09:33:59;;;;;;;80.65;43.70;;;7.80;80.10;;;;;;5013467;28;20069;-66
2022/03/20 09:36:24;;;;;;;80.45;48.30;;;7.90;77.00;;;;;;5009691;28;20085;-67
2022/03/20 09:38:50;;;;;;;73.15;46.83;;;8.00;78.70;;;;;;5006789;28;20084;-67
2022/03/20 09:41:17;;;;;;;71.03;44.10;;;8.10;76.90;;;;;;5005576;28;20050;-66
2022/03/20 09:43:44;;;;;;;75.10;47.45;;;8.10;73.60;;;;;;5006368;28;20088;-66
2022/03/20 09:46:10;;;;;;;75.50;46.53;;;8.20;73.60;;;;;;5017570;28;20072;-66
2022/03/20 09:48:36;;;;;;;73.90;42.83;;;8.30;75.10;;;;;;5010297;28;20305;-65
2022/03/20 09:51:04;;;;;;;71.20;46.22;;;8.30;71.00;;;;;;5013272;28;20041;-67
2022/03/20 09:53:31;;;;;;;70.28;45.50;;;8.30;71.80;;;;;;5017080;28;20076;-66
2022/03/20 09:55:57;;;;;;;98.55;46.97;;;8.40;72.30;;;;;;5001668;28;20050;-67
2022/03/20 09:58:27;;;;;;;80.22;49.22;;;8.30;71.60;;;;;;5011672;28;20069;-67
2022/03/20 10:00:54;;;;;;;80.93;47.88;;;8.30;69.70;;;;;;5003086;28;20765;-66
2022/03/20 10:03:21;;;;;;;77.93;47.00;;;8.60;71.90;;;;;;5008157;28;20054;-66
2022/03/20 10:06:15;;;;;;;76.22;48.03;;;8.70;71.40;;;;;;5001828;28;20062;-67
2022/03/20 10:09:14;;;;;;;72.43;47.45;;;8.80;71.00;;;;;;5004061;28;20066;-66
2022/03/20 10:11:52;;;;;;;81.07;47.63;;;8.80;70.00;;;;;;4994809;28;20542;-67
2022/03/20 10:14:21;;;;;;;80.70;50.03;;;8.70;67.80;;;;;;5008172;28;20411;-67
2022/03/20 10:16:48;;;;;;;71.10;45.42;;;8.80;68.00;;;;;;5007168;28;20095;-67
2022/03/20 10:19:23;;;;;;;78.70;48.08;;;9.10;71.20;;;;;;5011489;28;20475;-67
2022/03/20 10:22:10;;;;;;;76.80;47.70;;;9.10;66.40;;;;;;5006504;28;20041;-67
2022/03/20 10:24:38;;;;;;;78.22;48.65;;;9.20;66.60;;;;;;4999515;28;20037;-67
2022/03/20 10:27:04;;;;;;;81.25;50.03;;;9.30;67.50;;;;;;5008495;28;20045;-67
2022/03/20 10:29:32;;;;;;;82.45;49.30;;;9.20;66.30;;;;;;5002521;28;20092;-67
2022/03/20 10:32:08;;;;;;;76.57;48.90;;;9.20;65.20;;;;;;5006948;28;20618;-68
2022/03/20 10:34:56;;;;;;;78.90;49.28;;;9.40;66.20;;;;;;5008834;28;20041;-67
2022/03/20 10:37:49;;;;;;;78.53;50.78;;;9.30;65.10;;;;;;4997052;28;20073;-67
2022/03/20 10:40:28;;;;;;;74.22;48.05;;;9.50;65.40;;;;;;5005919;28;20046;-66
2022/03/20 10:43:10;;;;;;;69.10;44.17;;;9.50;64.80;;;;;;5004531;28;20049;-67
2022/03/20 10:45:52;;;;;;;76.35;48.50;;;9.50;65.60;;;;;;5003514;28;20562;-67
2022/03/20 10:48:31;;;;;;;77.03;48.15;;;9.70;64.70;;;;;;5006882;28;20466;-67
2022/03/20 10:50:58;;;;;;;82.50;46.83;;;9.70;65.10;;;;;;5005297;28;20049;-67
2022/03/20 10:53:23;;;;;;;76.22;48.58;;;9.70;65.40;;;;;;5006350;28;20054;-67
2022/03/20 10:56:07;;;;;;;79.60;51.88;;;9.80;64.10;;;;;;5007296;28;20523;-67
2022/03/20 10:58:39;;;;;;;81.15;49.88;;;9.90;64.40;;;;;;5006429;28;20454;-67
2022/03/20 11:01:07;;;;;;;79.13;49.03;;;9.80;63.00;;;;;;5007472;28;20060;-67
2022/03/20 11:03:36;;;;;;;83.65;50.20;;;9.90;62.80;;;;;;5007757;28;20533;-67
2022/03/20 11:06:06;;;;;;;82.60;50.05;;;10.10;63.10;;;;;;5006735;28;20076;-68
2022/03/20 11:08:31;;;;;;;79.90;52.40;;;10.20;63.10;;;;;;5002138;28;20498;-67
2022/03/20 11:11:00;;;;;;;89.85;51.08;;;10.30;63.10;;;;;;5004968;28;20069;-67
2022/03/20 11:13:27;;;;;;;82.93;49.40;;;10.20;61.80;;;;;;5004206;28;20410;-68
2022/03/20 11:15:56;;;;;;;84.03;48.33;;;10.20;61.00;;;;;;4985656;28;20455;-67
2022/03/20 11:18:25;;;;;;;83.78;51.08;;;10.30;62.70;;;;;;5004960;28;20064;-67
2022/03/20 11:20:51;;;;;;;;;;;10.50;62.20;;;;;;5006912;28;20052;-66
2022/03/20 11:23:18;;;;;;;81.78;51.03;;;10.40;59.30;;;;;;5001376;28;20008;-67
2022/03/20 11:25:45;;;;;;;78.30;49.72;;;10.30;60.70;;;;;;4999156;28;20045;-67
2022/03/20 11:28:13;;;;;;;78.35;51.28;;;10.50;61.40;;;;;;5004211;28;20148;-67
2022/03/20 11:30:39;;;;;;;76.43;50.95;;;10.60;60.10;;;;;;5003452;28;20054;-66
2022/03/20 11:33:06;;;;;;;88.43;51.55;;;10.70;60.50;;;;;;5004953;28;20045;-67
2022/03/20 11:35:33;;;;;;;82.05;52.08;;;10.70;60.40;;;;;;5007797;28;20507;-67
2022/03/20 11:38:17;;;;;;;77.13;49.00;;;10.70;60.20;;;;;;5005405;28;20038;-67
2022/03/20 11:41:06;;;;;;;76.78;49.65;;;10.70;58.70;;;;;;5003628;28;20037;-67
2022/03/20 11:43:33;;;;;;;86.68;50.53;;;10.70;59.20;;;;;;4995953;28;20049;-67
2022/03/20 11:46:30;;;;;;;85.18;54.15;;;10.80;59.50;;;;;;5007878;28;20057;-67
2022/03/20 11:49:13;;;;;;;78.65;51.50;;;10.80;58.80;;;;;;4992149;28;20084;-67
2022/03/20 11:51:56;;;;;;;78.65;47.58;;;10.80;59.30;;;;;;5004047;28;20049;-67
2022/03/20 11:54:32;;;;;;;79.80;51.80;;;10.80;59.30;;;;;;5008620;28;20085;-67
2022/03/20 11:57:00;;;;;;;77.43;49.13;;;10.90;59.70;;;;;;5005487;28;20053;-67
2022/03/20 11:59:48;;;;;;;86.45;51.05;;;11.00;58.80;;;;;;5000722;28;20054;-67
2022/03/20 12:02:15;;;;;;;91.22;51.95;;;11.10;60.10;;;;;;5002091;28;20113;-66
2022/03/20 12:05:02;;;;;;;79.95;50.75;;;11.10;59.10;;;;;;5004669;28;20040;-67
2022/03/20 12:07:49;;;;;;;91.07;52.25;;;11.10;58.50;;;;;;5002495;28;20089;-67
2022/03/20 12:10:23;;;;;;;81.25;51.92;;;11.20;58.00;;;;;;5007308;28;20475;-67
2022/03/20 12:12:59;;;;;;;79.70;49.10;;;11.10;57.60;;;;;;5008011;28;20034;-67
2022/03/20 12:15:27;;;;;;;87.07;50.78;;;11.20;58.70;;;;;;5007195;28;20046;-67
2022/03/20 12:18:04;;;;;;;87.78;54.47;;;11.00;57.50;;;;;;5009110;28;20073;-66
2022/03/20 12:20:51;;;;;;;85.45;51.53;;;11.10;58.40;;;;;;5003531;28;20042;-67
2022/03/20 12:23:40;;;;;;;86.35;52.13;;;11.00;58.10;;;;;;5002542;28;20042;-67
2022/03/20 12:26:30;;;;;;;80.18;50.80;;;11.10;57.90;;;;;;5007748;28;20034;-67
2022/03/20 12:29:32;;;;;;;89.85;51.20;;;11.30;58.40;;;;;;5008339;28;20068;-67
2022/03/20 12:31:57;;;;;;;85.47;53.28;;;11.50;57.70;;;;;;5004070;28;20086;-68
2022/03/20 12:34:25;;;;;;;81.63;49.97;;;11.50;57.50;;;;;;5008084;28;20077;-67
2022/03/20 12:36:52;;;;;;;87.97;54.10;;;11.60;58.20;;;;;;5002582;28;20050;-67
2022/03/20 12:39:49;;;;;;;87.78;52.10;;;11.60;57.70;;;;;;5007770;28;20057;-67
2022/03/20 12:42:17;;;;;;;83.47;50.55;;;11.80;57.80;;;;;;5004250;28;20410;-67
2022/03/20 12:44:47;;;;;;;101.10;55.77;;;11.80;58.20;;;;;;5010459;28;20088;-67
2022/03/20 12:47:18;;;;;;;85.43;51.78;;;11.80;58.00;;;;;;5010545;28;20506;-67
2022/03/20 12:49:52;;;;;;;83.88;51.58;;;11.80;57.60;;;;;;5009996;28;20518;-67
2022/03/20 12:52:19;;;;;;;88.40;53.72;;;11.80;57.70;;;;;;5015026;28;20135;-65
2022/03/20 12:54:56;;;;;;;84.25;52.83;;;11.70;57.30;;;;;;5001291;28;20095;-66
2022/03/20 12:57:43;;;;;;;94.20;56.17;;;11.50;57.40;;;;;;5003700;28;20060;-67
2022/03/20 13:00:18;;;;;;;85.83;52.57;;;11.30;57.10;;;;;;5001660;28;20056;-68
2022/03/20 13:02:58;;;;;;;88.22;53.47;;;11.30;58.80;;;;;;5007153;28;20125;-67
2022/03/20 13:05:33;;;;;;;89.75;52.72;;;11.40;59.20;;;;;;4996833;28;20054;-67
2022/03/20 13:07:59;;;;;;;82.70;51.83;;;11.60;58.90;;;;;;5000246;28;20459;-67
2022/03/20 13:10:31;;;;;;;90.35;52.25;;;11.90;58.00;;;;;;5000147;28;20038;-66
2022/03/20 13:12:58;;;;;;;80.60;53.53;;;11.80;57.00;;;;;;5005688;28;20052;-67
2022/03/20 13:15:27;;;;;;;85.65;54.15;;;11.80;57.60;;;;;;5010161;28;20045;-67
2022/03/20 13:17:54;;;;;;;93.47;54.13;;;11.90;57.20;;;;;;5014215;28;20078;-65